sensor_id;sensor_type;location;lat;lon;timestamp;P1;durP1;ratioP1;P2;durP2;ratioP2
14040;SDS011;7095;51.388;6.196;2022-12-07T00:01:44;33.40;;;21.97;;
14040;SDS011;7095;51.388;6.196;2022-12-07T00:04:15;32.87;;;22.97;;
14040;SDS011;7095;51.388;6.196;2022-12-07T00:06:45;36.60;;;21.60;;
14040;SDS011;7095;51.388;6.196;2022-12-07T00:09:16;30.37;;;22.20;;
14040;SDS011;7095;51.388;6.196;2022-12-07T00:11:48;33.97;;;22.07;;
14040;SDS011;7095;51.388;6.196;2022-12-07T00:14:18;34.53;;;22.70;;
14040;SDS011;7095;51.388;6.196;2022-12-07T00:16:48;33.50;;;21.27;;
14040;SDS011;7095;51.388;6.196;2022-12-07T00:19:18;35.63;;;21.93;;
14040;SDS011;7095;51.388;6.196;2022-12-07T00:21:46;31.33;;;21.53;;
14040;SDS011;7095;51.388;6.196;2022-12-07T00:24:16;36.73;;;23.03;;
14040;SDS011;7095;51.388;6.196;2022-12-07T00:26:44;32.80;;;20.87;;
14040;SDS011;7095;51.388;6.196;2022-12-07T00:29:15;33.10;;;22.87;;
14040;SDS011;7095;51.388;6.196;2022-12-07T00:31:46;30.80;;;20.83;;
14040;SDS011;7095;51.388;6.196;2022-12-07T00:34:16;36.70;;;22.17;;
14040;SDS011;7095;51.388;6.196;2022-12-07T00:36:46;33.87;;;22.77;;
14040;SDS011;7095;51.388;6.196;2022-12-07T00:39:16;30.17;;;20.10;;
14040;SDS011;7095;51.388;6.196;2022-12-07T00:41:45;29.17;;;20.27;;
14040;SDS011;7095;51.388;6.196;2022-12-07T00:44:13;30.47;;;19.83;;
14040;SDS011;7095;51.388;6.196;2022-12-07T00:46:41;30.20;;;21.40;;
14040;SDS011;7095;51.388;6.196;2022-12-07T00:49:12;31.60;;;20.70;;
14040;SDS011;7095;51.388;6.196;2022-12-07T00:51:40;33.50;;;21.57;;
14040;SDS011;7095;51.388;6.196;2022-12-07T00:54:09;27.70;;;19.90;;
14040;SDS011;7095;51.388;6.196;2022-12-07T00:56:38;29.37;;;21.53;;
14040;SDS011;7095;51.388;6.196;2022-12-07T00:59:10;37.37;;;22.40;;
14040;SDS011;7095;51.388;6.196;2022-12-07T01:01:41;38.70;;;21.10;;
14040;SDS011;7095;51.388;6.196;2022-12-07T01:04:10;28.57;;;21.67;;
14040;SDS011;7095;51.388;6.196;2022-12-07T01:06:38;36.47;;;22.77;;
14040;SDS011;7095;51.388;6.196;2022-12-07T01:09:06;32.77;;;21.93;;
14040;SDS011;7095;51.388;6.196;2022-12-07T01:14:35;32.47;;;22.10;;
14040;SDS011;7095;51.388;6.196;2022-12-07T01:17:04;34.60;;;22.27;;
14040;SDS011;7095;51.388;6.196;2022-12-07T01:19:32;33.77;;;22.47;;
14040;SDS011;7095;51.388;6.196;2022-12-07T01:22:01;33.40;;;22.87;;
14040;SDS011;7095;51.388;6.196;2022-12-07T01:24:29;32.67;;;22.63;;
14040;SDS011;7095;51.388;6.196;2022-12-07T01:26:58;35.10;;;22.37;;
14040;SDS011;7095;51.388;6.196;2022-12-07T01:29:28;38.53;;;23.20;;
14040;SDS011;7095;51.388;6.196;2022-12-07T01:31:57;33.50;;;21.60;;
14040;SDS011;7095;51.388;6.196;2022-12-07T01:34:25;33.00;;;22.90;;
14040;SDS011;7095;51.388;6.196;2022-12-07T01:36:53;40.13;;;23.67;;
14040;SDS011;7095;51.388;6.196;2022-12-07T01:39:22;42.90;;;22.93;;
14040;SDS011;7095;51.388;6.196;2022-12-07T01:41:51;39.07;;;22.57;;
14040;SDS011;7095;51.388;6.196;2022-12-07T01:44:20;32.47;;;22.17;;
14040;SDS011;7095;51.388;6.196;2022-12-07T01:46:52;33.30;;;23.23;;
14040;SDS011;7095;51.388;6.196;2022-12-07T01:49:27;34.57;;;21.80;;
14040;SDS011;7095;51.388;6.196;2022-12-07T01:52:05;37.17;;;23.83;;
14040;SDS011;7095;51.388;6.196;2022-12-07T01:54:41;31.13;;;21.90;;
14040;SDS011;7095;51.388;6.196;2022-12-07T01:57:11;36.30;;;24.70;;
14040;SDS011;7095;51.388;6.196;2022-12-07T01:59:43;33.90;;;22.83;;
14040;SDS011;7095;51.388;6.196;2022-12-07T02:02:17;38.17;;;23.30;;
14040;SDS011;7095;51.388;6.196;2022-12-07T02:04:48;37.90;;;24.57;;
14040;SDS011;7095;51.388;6.196;2022-12-07T02:07:18;38.37;;;23.07;;
14040;SDS011;7095;51.388;6.196;2022-12-07T02:09:47;38.60;;;23.80;;
14040;SDS011;7095;51.388;6.196;2022-12-07T02:12:16;32.00;;;22.90;;
14040;SDS011;7095;51.388;6.196;2022-12-07T02:14:45;33.97;;;23.27;;
14040;SDS011;7095;51.388;6.196;2022-12-07T02:17:16;34.90;;;23.60;;
14040;SDS011;7095;51.388;6.196;2022-12-07T02:20:02;34.40;;;23.17;;
14040;SDS011;7095;51.388;6.196;2022-12-07T02:23:04;42.10;;;23.60;;
14040;SDS011;7095;51.388;6.196;2022-12-07T02:25:55;38.00;;;23.57;;
14040;SDS011;7095;51.388;6.196;2022-12-07T02:28:47;32.87;;;22.83;;
14040;SDS011;7095;51.388;6.196;2022-12-07T02:31:37;38.90;;;21.97;;
14040;SDS011;7095;51.388;6.196;2022-12-07T02:34:14;30.87;;;22.33;;
14040;SDS011;7095;51.388;6.196;2022-12-07T02:36:52;41.57;;;24.77;;
14040;SDS011;7095;51.388;6.196;2022-12-07T02:39:26;39.37;;;24.47;;
14040;SDS011;7095;51.388;6.196;2022-12-07T02:42:00;37.77;;;24.90;;
14040;SDS011;7095;51.388;6.196;2022-12-07T02:44:33;34.43;;;23.77;;
14040;SDS011;7095;51.388;6.196;2022-12-07T02:47:03;34.00;;;22.30;;
14040;SDS011;7095;51.388;6.196;2022-12-07T02:49:35;36.83;;;23.17;;
14040;SDS011;7095;51.388;6.196;2022-12-07T02:52:06;34.57;;;23.00;;
14040;SDS011;7095;51.388;6.196;2022-12-07T02:54:35;42.13;;;22.90;;
14040;SDS011;7095;51.388;6.196;2022-12-07T02:57:06;36.40;;;22.73;;
14040;SDS011;7095;51.388;6.196;2022-12-07T02:59:48;30.53;;;22.40;;
14040;SDS011;7095;51.388;6.196;2022-12-07T03:02:31;36.67;;;21.53;;
14040;SDS011;7095;51.388;6.196;2022-12-07T03:05:15;37.43;;;21.93;;
14040;SDS011;7095;51.388;6.196;2022-12-07T03:08:01;30.80;;;21.10;;
14040;SDS011;7095;51.388;6.196;2022-12-07T03:10:37;34.77;;;21.53;;
14040;SDS011;7095;51.388;6.196;2022-12-07T03:13:15;35.30;;;21.93;;
14040;SDS011;7095;51.388;6.196;2022-12-07T03:15:53;32.93;;;21.23;;
14040;SDS011;7095;51.388;6.196;2022-12-07T03:18:28;40.27;;;23.03;;
14040;SDS011;7095;51.388;6.196;2022-12-07T03:21:01;34.57;;;21.23;;
14040;SDS011;7095;51.388;6.196;2022-12-07T03:23:34;29.93;;;20.77;;
14040;SDS011;7095;51.388;6.196;2022-12-07T03:26:05;37.77;;;19.97;;
14040;SDS011;7095;51.388;6.196;2022-12-07T03:28:40;38.47;;;20.00;;
14040;SDS011;7095;51.388;6.196;2022-12-07T03:31:16;29.67;;;20.27;;
14040;SDS011;7095;51.388;6.196;2022-12-07T03:33:48;33.87;;;19.67;;
14040;SDS011;7095;51.388;6.196;2022-12-07T03:36:21;34.47;;;19.37;;
14040;SDS011;7095;51.388;6.196;2022-12-07T03:38:55;34.60;;;20.00;;
14040;SDS011;7095;51.388;6.196;2022-12-07T03:41:29;40.40;;;20.77;;
14040;SDS011;7095;51.388;6.196;2022-12-07T03:44:10;30.83;;;19.73;;
14040;SDS011;7095;51.388;6.196;2022-12-07T03:46:43;32.60;;;19.77;;
14040;SDS011;7095;51.388;6.196;2022-12-07T03:49:18;33.63;;;19.80;;
14040;SDS011;7095;51.388;6.196;2022-12-07T03:51:51;29.37;;;20.00;;
14040;SDS011;7095;51.388;6.196;2022-12-07T03:54:29;30.17;;;19.33;;
14040;SDS011;7095;51.388;6.196;2022-12-07T03:57:02;31.57;;;19.37;;
14040;SDS011;7095;51.388;6.196;2022-12-07T03:59:32;26.20;;;20.43;;
14040;SDS011;7095;51.388;6.196;2022-12-07T04:02:03;33.07;;;20.00;;
14040;SDS011;7095;51.388;6.196;2022-12-07T04:04:34;30.63;;;19.80;;
14040;SDS011;7095;51.388;6.196;2022-12-07T04:07:03;37.60;;;21.67;;
14040;SDS011;7095;51.388;6.196;2022-12-07T04:09:31;36.10;;;20.50;;
14040;SDS011;7095;51.388;6.196;2022-12-07T04:12:00;31.27;;;19.90;;
14040;SDS011;7095;51.388;6.196;2022-12-07T04:14:28;30.50;;;21.07;;
14040;SDS011;7095;51.388;6.196;2022-12-07T04:16:57;30.90;;;20.87;;
14040;SDS011;7095;51.388;6.196;2022-12-07T04:19:29;32.03;;;19.37;;
14040;SDS011;7095;51.388;6.196;2022-12-07T04:21:59;41.57;;;21.47;;
14040;SDS011;7095;51.388;6.196;2022-12-07T04:24:31;37.03;;;21.33;;
14040;SDS011;7095;51.388;6.196;2022-12-07T04:27:01;32.10;;;20.13;;
14040;SDS011;7095;51.388;6.196;2022-12-07T04:29:31;30.90;;;20.10;;
14040;SDS011;7095;51.388;6.196;2022-12-07T04:31:59;41.43;;;20.37;;
14040;SDS011;7095;51.388;6.196;2022-12-07T04:34:29;33.37;;;18.57;;
14040;SDS011;7095;51.388;6.196;2022-12-07T04:36:58;30.83;;;19.47;;
14040;SDS011;7095;51.388;6.196;2022-12-07T04:39:27;29.87;;;18.87;;
14040;SDS011;7095;51.388;6.196;2022-12-07T04:41:57;32.83;;;19.50;;
14040;SDS011;7095;51.388;6.196;2022-12-07T04:44:27;34.13;;;18.27;;
14040;SDS011;7095;51.388;6.196;2022-12-07T04:46:56;27.00;;;18.67;;
14040;SDS011;7095;51.388;6.196;2022-12-07T04:49:25;34.63;;;18.97;;
14040;SDS011;7095;51.388;6.196;2022-12-07T04:51:55;36.50;;;18.70;;
14040;SDS011;7095;51.388;6.196;2022-12-07T04:54:23;28.27;;;18.47;;
14040;SDS011;7095;51.388;6.196;2022-12-07T04:56:52;25.73;;;17.43;;
14040;SDS011;7095;51.388;6.196;2022-12-07T04:59:20;27.23;;;18.43;;
14040;SDS011;7095;51.388;6.196;2022-12-07T05:01:49;28.67;;;17.70;;
14040;SDS011;7095;51.388;6.196;2022-12-07T05:04:17;28.70;;;18.10;;
14040;SDS011;7095;51.388;6.196;2022-12-07T05:06:46;27.60;;;17.17;;
14040;SDS011;7095;51.388;6.196;2022-12-07T05:09:16;26.53;;;16.97;;
14040;SDS011;7095;51.388;6.196;2022-12-07T05:11:44;27.17;;;17.37;;
14040;SDS011;7095;51.388;6.196;2022-12-07T05:14:14;23.77;;;16.63;;
14040;SDS011;7095;51.388;6.196;2022-12-07T05:16:45;29.77;;;17.57;;
14040;SDS011;7095;51.388;6.196;2022-12-07T05:19:15;32.40;;;17.53;;
14040;SDS011;7095;51.388;6.196;2022-12-07T05:21:45;34.23;;;17.70;;
14040;SDS011;7095;51.388;6.196;2022-12-07T05:24:14;29.97;;;18.23;;
14040;SDS011;7095;51.388;6.196;2022-12-07T05:26:44;30.73;;;18.40;;
14040;SDS011;7095;51.388;6.196;2022-12-07T05:29:14;27.00;;;17.67;;
14040;SDS011;7095;51.388;6.196;2022-12-07T05:31:44;27.63;;;18.83;;
14040;SDS011;7095;51.388;6.196;2022-12-07T05:34:13;26.33;;;17.37;;
14040;SDS011;7095;51.388;6.196;2022-12-07T05:36:41;25.40;;;17.90;;
14040;SDS011;7095;51.388;6.196;2022-12-07T05:39:10;24.00;;;16.73;;
14040;SDS011;7095;51.388;6.196;2022-12-07T05:41:40;24.47;;;17.30;;
14040;SDS011;7095;51.388;6.196;2022-12-07T05:44:26;28.50;;;16.07;;
14040;SDS011;7095;51.388;6.196;2022-12-07T05:46:54;26.23;;;17.40;;
14040;SDS011;7095;51.388;6.196;2022-12-07T05:49:22;21.67;;;16.50;;
14040;SDS011;7095;51.388;6.196;2022-12-07T05:51:51;22.60;;;14.93;;
14040;SDS011;7095;51.388;6.196;2022-12-07T05:54:19;25.47;;;15.83;;
14040;SDS011;7095;51.388;6.196;2022-12-07T05:56:49;27.37;;;15.00;;
14040;SDS011;7095;51.388;6.196;2022-12-07T05:59:18;24.60;;;14.30;;
14040;SDS011;7095;51.388;6.196;2022-12-07T06:01:53;22.83;;;14.03;;
14040;SDS011;7095;51.388;6.196;2022-12-07T06:04:22;19.60;;;13.27;;
14040;SDS011;7095;51.388;6.196;2022-12-07T06:06:52;19.87;;;13.50;;
14040;SDS011;7095;51.388;6.196;2022-12-07T06:09:22;23.43;;;13.00;;
14040;SDS011;7095;51.388;6.196;2022-12-07T06:11:52;25.97;;;12.97;;
14040;SDS011;7095;51.388;6.196;2022-12-07T06:14:38;21.10;;;12.43;;
14040;SDS011;7095;51.388;6.196;2022-12-07T06:17:07;22.10;;;12.67;;
14040;SDS011;7095;51.388;6.196;2022-12-07T06:19:36;18.70;;;11.83;;
14040;SDS011;7095;51.388;6.196;2022-12-07T06:22:05;21.70;;;11.10;;
14040;SDS011;7095;51.388;6.196;2022-12-07T06:24:35;19.83;;;11.30;;
14040;SDS011;7095;51.388;6.196;2022-12-07T06:27:05;25.17;;;11.60;;
14040;SDS011;7095;51.388;6.196;2022-12-07T06:29:34;23.27;;;12.67;;
14040;SDS011;7095;51.388;6.196;2022-12-07T06:32:03;25.33;;;13.07;;
14040;SDS011;7095;51.388;6.196;2022-12-07T06:34:33;20.83;;;11.57;;
14040;SDS011;7095;51.388;6.196;2022-12-07T06:37:01;19.80;;;12.70;;
14040;SDS011;7095;51.388;6.196;2022-12-07T06:39:30;20.93;;;12.50;;
14040;SDS011;7095;51.388;6.196;2022-12-07T06:41:59;26.37;;;14.27;;
14040;SDS011;7095;51.388;6.196;2022-12-07T06:44:29;19.70;;;13.70;;
14040;SDS011;7095;51.388;6.196;2022-12-07T06:46:57;23.00;;;13.70;;
14040;SDS011;7095;51.388;6.196;2022-12-07T06:49:45;26.70;;;13.07;;
14040;SDS011;7095;51.388;6.196;2022-12-07T06:52:14;30.30;;;12.47;;
14040;SDS011;7095;51.388;6.196;2022-12-07T06:54:42;23.00;;;12.90;;
14040;SDS011;7095;51.388;6.196;2022-12-07T06:57:11;26.30;;;13.80;;
14040;SDS011;7095;51.388;6.196;2022-12-07T06:59:41;19.50;;;12.20;;
14040;SDS011;7095;51.388;6.196;2022-12-07T07:02:10;22.00;;;12.37;;
14040;SDS011;7095;51.388;6.196;2022-12-07T07:04:39;21.53;;;12.73;;
14040;SDS011;7095;51.388;6.196;2022-12-07T07:07:07;20.43;;;13.90;;
14040;SDS011;7095;51.388;6.196;2022-12-07T07:09:36;19.77;;;13.30;;
14040;SDS011;7095;51.388;6.196;2022-12-07T07:12:04;22.53;;;14.63;;
14040;SDS011;7095;51.388;6.196;2022-12-07T07:14:33;24.50;;;14.30;;
14040;SDS011;7095;51.388;6.196;2022-12-07T07:17:03;18.33;;;13.87;;
14040;SDS011;7095;51.388;6.196;2022-12-07T07:19:32;22.83;;;14.43;;
14040;SDS011;7095;51.388;6.196;2022-12-07T07:22:00;27.47;;;15.30;;
14040;SDS011;7095;51.388;6.196;2022-12-07T07:24:29;28.10;;;14.57;;
14040;SDS011;7095;51.388;6.196;2022-12-07T07:26:57;24.33;;;16.10;;
14040;SDS011;7095;51.388;6.196;2022-12-07T07:29:26;27.63;;;15.33;;
14040;SDS011;7095;51.388;6.196;2022-12-07T07:31:54;23.43;;;15.80;;
14040;SDS011;7095;51.388;6.196;2022-12-07T07:34:32;25.47;;;16.50;;
14040;SDS011;7095;51.388;6.196;2022-12-07T07:37:00;26.97;;;16.53;;
14040;SDS011;7095;51.388;6.196;2022-12-07T07:39:29;27.80;;;16.40;;
14040;SDS011;7095;51.388;6.196;2022-12-07T07:41:57;25.73;;;16.43;;
14040;SDS011;7095;51.388;6.196;2022-12-07T07:44:27;24.10;;;15.63;;
14040;SDS011;7095;51.388;6.196;2022-12-07T07:47:01;30.93;;;16.10;;
14040;SDS011;7095;51.388;6.196;2022-12-07T07:49:31;22.63;;;15.23;;
14040;SDS011;7095;51.388;6.196;2022-12-07T07:52:00;25.63;;;14.13;;
14040;SDS011;7095;51.388;6.196;2022-12-07T07:54:28;29.60;;;16.20;;
14040;SDS011;7095;51.388;6.196;2022-12-07T07:56:57;27.43;;;14.87;;
14040;SDS011;7095;51.388;6.196;2022-12-07T07:59:26;22.30;;;15.23;;
14040;SDS011;7095;51.388;6.196;2022-12-07T08:01:54;24.87;;;14.20;;
14040;SDS011;7095;51.388;6.196;2022-12-07T08:04:23;22.97;;;14.63;;
14040;SDS011;7095;51.388;6.196;2022-12-07T08:06:56;23.27;;;14.20;;
14040;SDS011;7095;51.388;6.196;2022-12-07T08:09:25;24.60;;;14.43;;
14040;SDS011;7095;51.388;6.196;2022-12-07T08:11:53;24.37;;;15.10;;
14040;SDS011;7095;51.388;6.196;2022-12-07T08:14:21;22.67;;;16.27;;
14040;SDS011;7095;51.388;6.196;2022-12-07T08:16:50;28.73;;;17.47;;
14040;SDS011;7095;51.388;6.196;2022-12-07T08:19:19;22.30;;;15.77;;
14040;SDS011;7095;51.388;6.196;2022-12-07T08:21:48;25.63;;;16.53;;
14040;SDS011;7095;51.388;6.196;2022-12-07T08:24:18;35.33;;;19.77;;
14040;SDS011;7095;51.388;6.196;2022-12-07T08:26:47;35.00;;;23.60;;
14040;SDS011;7095;51.388;6.196;2022-12-07T08:29:16;39.13;;;25.10;;
14040;SDS011;7095;51.388;6.196;2022-12-07T08:31:45;53.50;;;32.63;;
14040;SDS011;7095;51.388;6.196;2022-12-07T08:34:14;71.73;;;45.50;;
14040;SDS011;7095;51.388;6.196;2022-12-07T08:36:42;72.90;;;49.80;;
14040;SDS011;7095;51.388;6.196;2022-12-07T08:39:11;90.63;;;55.83;;
14040;SDS011;7095;51.388;6.196;2022-12-07T08:41:59;77.60;;;53.50;;
14040;SDS011;7095;51.388;6.196;2022-12-07T08:44:28;88.87;;;58.40;;
14040;SDS011;7095;51.388;6.196;2022-12-07T08:46:57;85.17;;;58.27;;
14040;SDS011;7095;51.388;6.196;2022-12-07T08:49:30;83.20;;;57.93;;
14040;SDS011;7095;51.388;6.196;2022-12-07T08:52:04;83.77;;;55.57;;
14040;SDS011;7095;51.388;6.196;2022-12-07T08:54:33;69.47;;;51.00;;
14040;SDS011;7095;51.388;6.196;2022-12-07T08:57:05;74.13;;;45.47;;
14040;SDS011;7095;51.388;6.196;2022-12-07T08:59:36;50.10;;;36.43;;
14040;SDS011;7095;51.388;6.196;2022-12-07T09:02:05;48.70;;;31.03;;
14040;SDS011;7095;51.388;6.196;2022-12-07T09:04:34;36.93;;;27.47;;
14040;SDS011;7095;51.388;6.196;2022-12-07T09:07:03;38.80;;;22.70;;
14040;SDS011;7095;51.388;6.196;2022-12-07T09:09:33;43.23;;;20.40;;
14040;SDS011;7095;51.388;6.196;2022-12-07T09:12:02;30.00;;;17.30;;
14040;SDS011;7095;51.388;6.196;2022-12-07T09:14:32;27.83;;;15.17;;
14040;SDS011;7095;51.388;6.196;2022-12-07T09:17:07;30.10;;;16.57;;
14040;SDS011;7095;51.388;6.196;2022-12-07T09:19:36;26.30;;;15.30;;
14040;SDS011;7095;51.388;6.196;2022-12-07T09:22:05;24.40;;;14.03;;
14040;SDS011;7095;51.388;6.196;2022-12-07T09:24:34;27.70;;;15.03;;
14040;SDS011;7095;51.388;6.196;2022-12-07T09:27:03;24.83;;;14.83;;
14040;SDS011;7095;51.388;6.196;2022-12-07T09:29:32;24.33;;;15.23;;
14040;SDS011;7095;51.388;6.196;2022-12-07T09:32:01;18.40;;;14.17;;
14040;SDS011;7095;51.388;6.196;2022-12-07T09:34:37;20.93;;;14.13;;
14040;SDS011;7095;51.388;6.196;2022-12-07T09:37:05;23.57;;;14.93;;
14040;SDS011;7095;51.388;6.196;2022-12-07T09:39:37;25.70;;;13.77;;
14040;SDS011;7095;51.388;6.196;2022-12-07T09:42:17;22.83;;;13.63;;
14040;SDS011;7095;51.388;6.196;2022-12-07T09:44:57;20.47;;;13.17;;
14040;SDS011;7095;51.388;6.196;2022-12-07T09:47:27;20.40;;;12.23;;
14040;SDS011;7095;51.388;6.196;2022-12-07T09:49:58;20.37;;;13.00;;
14040;SDS011;7095;51.388;6.196;2022-12-07T09:52:31;17.73;;;11.50;;
14040;SDS011;7095;51.388;6.196;2022-12-07T09:55:08;15.63;;;10.27;;
14040;SDS011;7095;51.388;6.196;2022-12-07T09:57:39;23.60;;;11.33;;
14040;SDS011;7095;51.388;6.196;2022-12-07T10:00:12;19.50;;;10.63;;
14040;SDS011;7095;51.388;6.196;2022-12-07T10:02:43;15.77;;;9.73;;
14040;SDS011;7095;51.388;6.196;2022-12-07T10:05:15;16.33;;;10.50;;
14040;SDS011;7095;51.388;6.196;2022-12-07T10:07:50;20.27;;;11.37;;
14040;SDS011;7095;51.388;6.196;2022-12-07T10:10:20;23.33;;;11.40;;
14040;SDS011;7095;51.388;6.196;2022-12-07T10:12:53;25.63;;;10.33;;
14040;SDS011;7095;51.388;6.196;2022-12-07T10:18:18;20.43;;;10.93;;
14040;SDS011;7095;51.388;6.196;2022-12-07T10:20:59;23.07;;;10.77;;
14040;SDS011;7095;51.388;6.196;2022-12-07T10:23:30;17.47;;;8.63;;
14040;SDS011;7095;51.388;6.196;2022-12-07T10:25:58;17.43;;;8.17;;
14040;SDS011;7095;51.388;6.196;2022-12-07T10:28:33;19.30;;;9.43;;
14040;SDS011;7095;51.388;6.196;2022-12-07T10:31:16;20.83;;;8.57;;
14040;SDS011;7095;51.388;6.196;2022-12-07T10:33:48;16.57;;;8.03;;
14040;SDS011;7095;51.388;6.196;2022-12-07T10:36:20;20.57;;;8.10;;
14040;SDS011;7095;51.388;6.196;2022-12-07T10:38:52;17.47;;;7.27;;
14040;SDS011;7095;51.388;6.196;2022-12-07T10:41:26;14.63;;;7.10;;
14040;SDS011;7095;51.388;6.196;2022-12-07T10:43:56;10.63;;;6.63;;
14040;SDS011;7095;51.388;6.196;2022-12-07T10:46:40;12.77;;;6.70;;
14040;SDS011;7095;51.388;6.196;2022-12-07T10:49:27;17.17;;;7.70;;
14040;SDS011;7095;51.388;6.196;2022-12-07T10:52:23;16.00;;;6.27;;
14040;SDS011;7095;51.388;6.196;2022-12-07T10:55:08;11.87;;;6.73;;
14040;SDS011;7095;51.388;6.196;2022-12-07T10:57:56;18.97;;;7.37;;
14040;SDS011;7095;51.388;6.196;2022-12-07T11:00:41;16.77;;;6.80;;
14040;SDS011;7095;51.388;6.196;2022-12-07T11:03:30;19.60;;;6.97;;
14040;SDS011;7095;51.388;6.196;2022-12-07T11:06:13;17.03;;;6.30;;
14040;SDS011;7095;51.388;6.196;2022-12-07T11:08:55;16.57;;;6.53;;
14040;SDS011;7095;51.388;6.196;2022-12-07T11:11:33;11.63;;;6.23;;
14040;SDS011;7095;51.388;6.196;2022-12-07T11:14:05;14.70;;;5.60;;
14040;SDS011;7095;51.388;6.196;2022-12-07T11:16:52;10.07;;;5.87;;
14040;SDS011;7095;51.388;6.196;2022-12-07T11:19:52;14.43;;;6.03;;
14040;SDS011;7095;51.388;6.196;2022-12-07T11:22:33;12.10;;;5.50;;
14040;SDS011;7095;51.388;6.196;2022-12-07T11:25:13;15.10;;;6.67;;
14040;SDS011;7095;51.388;6.196;2022-12-07T11:27:57;12.87;;;5.97;;
14040;SDS011;7095;51.388;6.196;2022-12-07T11:30:38;13.77;;;7.50;;
14040;SDS011;7095;51.388;6.196;2022-12-07T11:33:12;16.10;;;6.03;;
14040;SDS011;7095;51.388;6.196;2022-12-07T11:35:54;13.23;;;4.93;;
14040;SDS011;7095;51.388;6.196;2022-12-07T11:38:33;12.03;;;5.33;;
14040;SDS011;7095;51.388;6.196;2022-12-07T11:41:09;12.10;;;5.67;;
14040;SDS011;7095;51.388;6.196;2022-12-07T11:43:54;14.10;;;5.43;;
14040;SDS011;7095;51.388;6.196;2022-12-07T11:46:27;18.00;;;4.80;;
14040;SDS011;7095;51.388;6.196;2022-12-07T11:49:07;8.70;;;4.50;;
14040;SDS011;7095;51.388;6.196;2022-12-07T11:51:43;10.47;;;4.43;;
14040;SDS011;7095;51.388;6.196;2022-12-07T11:54:17;9.63;;;4.17;;
14040;SDS011;7095;51.388;6.196;2022-12-07T11:56:49;8.67;;;4.33;;
14040;SDS011;7095;51.388;6.196;2022-12-07T11:59:22;9.67;;;4.13;;
14040;SDS011;7095;51.388;6.196;2022-12-07T12:01:58;10.03;;;4.10;;
14040;SDS011;7095;51.388;6.196;2022-12-07T12:04:44;9.90;;;3.23;;
14040;SDS011;7095;51.388;6.196;2022-12-07T12:07:21;11.83;;;3.63;;
14040;SDS011;7095;51.388;6.196;2022-12-07T12:10:17;9.53;;;3.53;;
14040;SDS011;7095;51.388;6.196;2022-12-07T12:13:00;8.00;;;3.27;;
14040;SDS011;7095;51.388;6.196;2022-12-07T12:16:03;10.43;;;4.37;;
14040;SDS011;7095;51.388;6.196;2022-12-07T12:18:43;11.03;;;4.13;;
14040;SDS011;7095;51.388;6.196;2022-12-07T12:21:26;15.73;;;4.80;;
14040;SDS011;7095;51.388;6.196;2022-12-07T12:23:58;7.73;;;3.67;;
14040;SDS011;7095;51.388;6.196;2022-12-07T12:26:30;10.80;;;3.80;;
14040;SDS011;7095;51.388;6.196;2022-12-07T12:29:01;9.43;;;3.47;;
14040;SDS011;7095;51.388;6.196;2022-12-07T12:31:36;13.23;;;4.27;;
14040;SDS011;7095;51.388;6.196;2022-12-07T12:36:59;12.93;;;4.10;;
14040;SDS011;7095;51.388;6.196;2022-12-07T12:39:29;13.07;;;3.50;;
14040;SDS011;7095;51.388;6.196;2022-12-07T12:42:00;8.93;;;3.60;;
14040;SDS011;7095;51.388;6.196;2022-12-07T12:47:51;10.37;;;3.53;;
14040;SDS011;7095;51.388;6.196;2022-12-07T12:50:30;11.47;;;3.50;;
14040;SDS011;7095;51.388;6.196;2022-12-07T12:53:01;7.57;;;3.17;;
14040;SDS011;7095;51.388;6.196;2022-12-07T12:59:19;9.40;;;3.60;;
14040;SDS011;7095;51.388;6.196;2022-12-07T13:01:54;9.80;;;3.83;;
14040;SDS011;7095;51.388;6.196;2022-12-07T13:10:33;14.67;;;4.93;;
14040;SDS011;7095;51.388;6.196;2022-12-07T13:25:23;9.87;;;3.40;;
14040;SDS011;7095;51.388;6.196;2022-12-07T13:28:02;10.70;;;3.27;;
14040;SDS011;7095;51.388;6.196;2022-12-07T13:30:42;9.57;;;3.50;;
14040;SDS011;7095;51.388;6.196;2022-12-07T13:33:15;6.37;;;3.63;;
14040;SDS011;7095;51.388;6.196;2022-12-07T13:35:46;8.10;;;3.40;;
14040;SDS011;7095;51.388;6.196;2022-12-07T13:38:25;11.50;;;3.30;;
14040;SDS011;7095;51.388;6.196;2022-12-07T13:41:04;10.10;;;4.10;;
14040;SDS011;7095;51.388;6.196;2022-12-07T13:43:43;7.50;;;3.10;;
14040;SDS011;7095;51.388;6.196;2022-12-07T13:46:14;9.10;;;3.30;;
14040;SDS011;7095;51.388;6.196;2022-12-07T13:48:45;8.03;;;3.13;;
14040;SDS011;7095;51.388;6.196;2022-12-07T13:51:17;13.37;;;3.93;;
14040;SDS011;7095;51.388;6.196;2022-12-07T13:53:47;10.40;;;3.70;;
14040;SDS011;7095;51.388;6.196;2022-12-07T13:56:18;7.57;;;3.83;;
14040;SDS011;7095;51.388;6.196;2022-12-07T13:58:48;10.93;;;3.77;;
14040;SDS011;7095;51.388;6.196;2022-12-07T14:01:18;7.70;;;2.83;;
14040;SDS011;7095;51.388;6.196;2022-12-07T14:03:47;9.87;;;2.87;;
14040;SDS011;7095;51.388;6.196;2022-12-07T14:06:18;9.17;;;2.77;;
14040;SDS011;7095;51.388;6.196;2022-12-07T14:09:05;9.73;;;2.63;;
14040;SDS011;7095;51.388;6.196;2022-12-07T14:11:44;8.10;;;3.00;;
14040;SDS011;7095;51.388;6.196;2022-12-07T14:14:14;8.03;;;2.93;;
14040;SDS011;7095;51.388;6.196;2022-12-07T14:16:56;11.87;;;2.80;;
14040;SDS011;7095;51.388;6.196;2022-12-07T14:19:46;6.80;;;2.63;;
14040;SDS011;7095;51.388;6.196;2022-12-07T14:22:27;13.10;;;3.30;;
14040;SDS011;7095;51.388;6.196;2022-12-07T14:24:58;9.77;;;3.27;;
14040;SDS011;7095;51.388;6.196;2022-12-07T14:27:31;8.37;;;3.00;;
14040;SDS011;7095;51.388;6.196;2022-12-07T14:30:01;12.30;;;3.27;;
14040;SDS011;7095;51.388;6.196;2022-12-07T14:32:34;8.30;;;3.53;;
14040;SDS011;7095;51.388;6.196;2022-12-07T14:35:08;16.07;;;3.50;;
14040;SDS011;7095;51.388;6.196;2022-12-07T14:37:39;10.90;;;3.00;;
14040;SDS011;7095;51.388;6.196;2022-12-07T14:40:12;8.73;;;3.00;;
14040;SDS011;7095;51.388;6.196;2022-12-07T14:42:42;7.17;;;3.70;;
14040;SDS011;7095;51.388;6.196;2022-12-07T14:45:15;9.23;;;4.00;;
14040;SDS011;7095;51.388;6.196;2022-12-07T14:47:46;14.63;;;4.83;;
14040;SDS011;7095;51.388;6.196;2022-12-07T14:50:36;13.90;;;7.50;;
14040;SDS011;7095;51.388;6.196;2022-12-07T14:53:27;16.23;;;11.07;;
14040;SDS011;7095;51.388;6.196;2022-12-07T14:55:59;13.77;;;6.30;;
14040;SDS011;7095;51.388;6.196;2022-12-07T14:58:27;12.07;;;6.50;;
14040;SDS011;7095;51.388;6.196;2022-12-07T15:00:56;12.87;;;5.17;;
14040;SDS011;7095;51.388;6.196;2022-12-07T15:03:26;6.30;;;3.10;;
14040;SDS011;7095;51.388;6.196;2022-12-07T15:05:55;7.77;;;3.00;;
14040;SDS011;7095;51.388;6.196;2022-12-07T15:08:23;13.53;;;3.77;;
14040;SDS011;7095;51.388;6.196;2022-12-07T15:10:52;8.53;;;3.23;;
14040;SDS011;7095;51.388;6.196;2022-12-07T15:13:20;7.60;;;3.10;;
14040;SDS011;7095;51.388;6.196;2022-12-07T15:16:07;8.87;;;3.97;;
14040;SDS011;7095;51.388;6.196;2022-12-07T15:18:39;19.60;;;3.57;;
14040;SDS011;7095;51.388;6.196;2022-12-07T15:21:24;14.80;;;3.87;;
14040;SDS011;7095;51.388;6.196;2022-12-07T15:23:53;9.27;;;3.50;;
14040;SDS011;7095;51.388;6.196;2022-12-07T15:26:22;15.67;;;4.20;;
14040;SDS011;7095;51.388;6.196;2022-12-07T15:28:52;11.90;;;4.30;;
14040;SDS011;7095;51.388;6.196;2022-12-07T15:31:21;11.10;;;3.70;;
14040;SDS011;7095;51.388;6.196;2022-12-07T15:34:11;9.03;;;3.87;;
14040;SDS011;7095;51.388;6.196;2022-12-07T15:36:39;14.17;;;4.43;;
14040;SDS011;7095;51.388;6.196;2022-12-07T15:39:08;10.07;;;4.17;;
14040;SDS011;7095;51.388;6.196;2022-12-07T15:41:40;11.67;;;4.00;;
14040;SDS011;7095;51.388;6.196;2022-12-07T15:44:10;11.67;;;4.87;;
14040;SDS011;7095;51.388;6.196;2022-12-07T15:46:57;10.30;;;4.30;;
14040;SDS011;7095;51.388;6.196;2022-12-07T15:49:28;14.53;;;5.37;;